sensor_id;sensor_type;location;lat;lon;timestamp;temperature;humidity
69162;DHT22;56269;51.738;21.652;2023-05-07T00:01:11;4.70;99.91
69162;DHT22;56269;51.738;21.652;2023-05-07T00:03:37;4.72;99.81
69162;DHT22;56269;51.738;21.652;2023-05-07T00:06:04;4.73;99.49
69162;DHT22;56269;51.738;21.652;2023-05-07T00:08:31;4.76;99.42
69162;DHT22;56269;51.738;21.652;2023-05-07T00:10:57;4.79;99.37
69162;DHT22;56269;51.738;21.652;2023-05-07T00:13:23;4.73;99.24
69162;DHT22;56269;51.738;21.652;2023-05-07T00:15:49;4.79;98.87
69162;DHT22;56269;51.738;21.652;2023-05-07T00:18:15;4.67;99.59
69162;DHT22;56269;51.738;21.652;2023-05-07T00:20:41;4.67;99.43
69162;DHT22;56269;51.738;21.652;2023-05-07T00:23:08;4.74;99.43
69162;DHT22;56269;51.738;21.652;2023-05-07T00:25:34;4.70;99.22
69162;DHT22;56269;51.738;21.652;2023-05-07T00:28:01;4.74;98.68
69162;DHT22;56269;51.738;21.652;2023-05-07T00:30:29;4.69;99.32
69162;DHT22;56269;51.738;21.652;2023-05-07T00:32:56;4.65;99.49
69162;DHT22;56269;51.738;21.652;2023-05-07T00:35:22;4.66;99.97
69162;DHT22;56269;51.738;21.652;2023-05-07T00:37:48;4.66;99.53
69162;DHT22;56269;51.738;21.652;2023-05-07T00:40:16;4.73;99.19
69162;DHT22;56269;51.738;21.652;2023-05-07T00:42:43;4.67;98.93
69162;DHT22;56269;51.738;21.652;2023-05-07T00:45:13;4.66;98.86
69162;DHT22;56269;51.738;21.652;2023-05-07T00:47:40;4.67;99.48
69162;DHT22;56269;51.738;21.652;2023-05-07T00:50:08;4.72;98.77
69162;DHT22;56269;51.738;21.652;2023-05-07T00:52:37;4.69;99.10
69162;DHT22;56269;51.738;21.652;2023-05-07T00:55:05;4.72;98.89
69162;DHT22;56269;51.738;21.652;2023-05-07T00:57:39;4.70;99.39
69162;DHT22;56269;51.738;21.652;2023-05-07T01:00:06;4.72;98.48
69162;DHT22;56269;51.738;21.652;2023-05-07T01:02:38;4.77;98.49
69162;DHT22;56269;51.738;21.652;2023-05-07T01:05:09;4.74;98.32
69162;DHT22;56269;51.738;21.652;2023-05-07T01:07:37;4.67;98.77
69162;DHT22;56269;51.738;21.652;2023-05-07T01:10:05;4.76;99.23
69162;DHT22;56269;51.738;21.652;2023-05-07T01:12:32;4.66;98.49
69162;DHT22;56269;51.738;21.652;2023-05-07T01:14:59;4.67;98.77
69162;DHT22;56269;51.738;21.652;2023-05-07T01:17:25;4.72;98.37
69162;DHT22;56269;51.738;21.652;2023-05-07T01:19:51;4.70;98.58
69162;DHT22;56269;51.738;21.652;2023-05-07T01:22:29;4.74;98.88
69162;DHT22;56269;51.738;21.652;2023-05-07T01:24:58;4.73;98.62
69162;DHT22;56269;51.738;21.652;2023-05-07T01:27:25;4.73;98.61
69162;DHT22;56269;51.738;21.652;2023-05-07T01:29:51;4.72;99.08
69162;DHT22;56269;51.738;21.652;2023-05-07T01:32:23;4.70;99.24
69162;DHT22;56269;51.738;21.652;2023-05-07T01:34:52;4.69;99.16
69162;DHT22;56269;51.738;21.652;2023-05-07T01:37:20;4.74;99.06
69162;DHT22;56269;51.738;21.652;2023-05-07T01:39:47;4.73;99.40
69162;DHT22;56269;51.738;21.652;2023-05-07T01:42:14;4.76;99.10
69162;DHT22;56269;51.738;21.652;2023-05-07T01:44:40;4.74;98.92
69162;DHT22;56269;51.738;21.652;2023-05-07T01:47:07;4.72;98.96
69162;DHT22;56269;51.738;21.652;2023-05-07T01:49:34;4.72;99.27
69162;DHT22;56269;51.738;21.652;2023-05-07T01:52:01;4.74;99.24
69162;DHT22;56269;51.738;21.652;2023-05-07T01:54:27;4.70;99.25
69162;DHT22;56269;51.738;21.652;2023-05-07T01:56:56;4.72;99.64
69162;DHT22;56269;51.738;21.652;2023-05-07T01:59:22;4.73;98.97
69162;DHT22;56269;51.738;21.652;2023-05-07T02:01:49;4.66;99.06
69162;DHT22;56269;51.738;21.652;2023-05-07T02:04:15;4.72;99.55
69162;DHT22;56269;51.738;21.652;2023-05-07T02:06:41;4.73;98.73
69162;DHT22;56269;51.738;21.652;2023-05-07T02:09:07;4.70;98.50
69162;DHT22;56269;51.738;21.652;2023-05-07T02:11:35;4.73;98.66
69162;DHT22;56269;51.738;21.652;2023-05-07T02:14:01;4.73;99.09
69162;DHT22;56269;51.738;21.652;2023-05-07T02:16:27;4.72;98.76
69162;DHT22;56269;51.738;21.652;2023-05-07T02:18:54;4.65;99.11
69162;DHT22;56269;51.738;21.652;2023-05-07T02:21:20;4.67;99.39
69162;DHT22;56269;51.738;21.652;2023-05-07T02:23:47;4.69;99.22
69162;DHT22;56269;51.738;21.652;2023-05-07T02:26:13;4.73;99.15
69162;DHT22;56269;51.738;21.652;2023-05-07T02:28:39;4.63;99.39
69162;DHT22;56269;51.738;21.652;2023-05-07T02:31:05;4.69;99.24
69162;DHT22;56269;51.738;21.652;2023-05-07T02:33:31;4.63;99.86
69162;DHT22;56269;51.738;21.652;2023-05-07T02:36:08;4.65;99.74
69162;DHT22;56269;51.738;21.652;2023-05-07T02:38:35;4.73;99.51
69162;DHT22;56269;51.738;21.652;2023-05-07T02:41:01;4.59;99.56
69162;DHT22;56269;51.738;21.652;2023-05-07T02:43:28;4.60;99.35
69162;DHT22;56269;51.738;21.652;2023-05-07T02:46:04;4.65;99.08
69162;DHT22;56269;51.738;21.652;2023-05-07T02:48:31;4.66;98.94
69162;DHT22;56269;51.738;21.652;2023-05-07T02:50:57;4.67;99.11
69162;DHT22;56269;51.738;21.652;2023-05-07T02:53:24;4.66;99.30
69162;DHT22;56269;51.738;21.652;2023-05-07T02:55:59;4.69;99.05
69162;DHT22;56269;51.738;21.652;2023-05-07T02:58:26;4.69;99.46
69162;DHT22;56269;51.738;21.652;2023-05-07T03:00:52;4.70;99.06
69162;DHT22;56269;51.738;21.652;2023-05-07T03:03:20;4.73;98.75
69162;DHT22;56269;51.738;21.652;2023-05-07T03:05:46;4.65;99.11
69162;DHT22;56269;51.738;21.652;2023-05-07T03:08:13;4.66;99.13
69162;DHT22;56269;51.738;21.652;2023-05-07T03:10:39;4.63;99.33
69162;DHT22;56269;51.738;21.652;2023-05-07T03:13:05;4.60;99.32
69162;DHT22;56269;51.738;21.652;2023-05-07T03:15:31;4.66;99.09
69162;DHT22;56269;51.738;21.652;2023-05-07T03:17:58;4.67;98.98
69162;DHT22;56269;51.738;21.652;2023-05-07T03:20:24;4.66;98.98
69162;DHT22;56269;51.738;21.652;2023-05-07T03:22:50;4.67;99.02
69162;DHT22;56269;51.738;21.652;2023-05-07T03:25:16;4.72;99.03
69162;DHT22;56269;51.738;21.652;2023-05-07T03:27:42;4.65;99.19
69162;DHT22;56269;51.738;21.652;2023-05-07T03:30:09;4.73;98.96
69162;DHT22;56269;51.738;21.652;2023-05-07T03:32:35;4.69;98.74
69162;DHT22;56269;51.738;21.652;2023-05-07T03:35:02;4.72;98.73
69162;DHT22;56269;51.738;21.652;2023-05-07T03:37:28;4.77;98.52
69162;DHT22;56269;51.738;21.652;2023-05-07T03:39:54;4.69;98.83
69162;DHT22;56269;51.738;21.652;2023-05-07T03:42:20;4.72;98.90
69162;DHT22;56269;51.738;21.652;2023-05-07T03:44:47;4.76;98.62
69162;DHT22;56269;51.738;21.652;2023-05-07T03:47:13;4.74;98.60
69162;DHT22;56269;51.738;21.652;2023-05-07T03:49:39;4.76;98.52
69162;DHT22;56269;51.738;21.652;2023-05-07T03:52:06;4.81;98.13
69162;DHT22;56269;51.738;21.652;2023-05-07T03:54:34;4.87;97.47
69162;DHT22;56269;51.738;21.652;2023-05-07T03:57:01;4.88;97.87
69162;DHT22;56269;51.738;21.652;2023-05-07T03:59:27;4.88;97.90
69162;DHT22;56269;51.738;21.652;2023-05-07T04:01:53;4.96;97.91
69162;DHT22;56269;51.738;21.652;2023-05-07T04:04:19;4.94;97.81
69162;DHT22;56269;51.738;21.652;2023-05-07T04:06:46;5.01;97.01
69162;DHT22;56269;51.738;21.652;2023-05-07T04:09:12;5.01;97.77
69162;DHT22;56269;51.738;21.652;2023-05-07T04:11:38;4.98;97.74
69162;DHT22;56269;51.738;21.652;2023-05-07T04:14:06;5.04;97.21
69162;DHT22;56269;51.738;21.652;2023-05-07T04:16:32;5.00;96.99
69162;DHT22;56269;51.738;21.652;2023-05-07T04:19:00;4.98;97.33
69162;DHT22;56269;51.738;21.652;2023-05-07T04:21:26;4.97;97.61
69162;DHT22;56269;51.738;21.652;2023-05-07T04:23:52;5.00;97.03
69162;DHT22;56269;51.738;21.652;2023-05-07T04:26:18;5.07;97.05
69162;DHT22;56269;51.738;21.652;2023-05-07T04:28:44;5.03;96.67
69162;DHT22;56269;51.738;21.652;2023-05-07T04:31:11;5.14;96.17
69162;DHT22;56269;51.738;21.652;2023-05-07T04:33:37;5.11;97.04
69162;DHT22;56269;51.738;21.652;2023-05-07T04:36:04;5.13;96.01
69162;DHT22;56269;51.738;21.652;2023-05-07T04:38:30;5.17;96.40
69162;DHT22;56269;51.738;21.652;2023-05-07T04:41:02;5.18;96.48
69162;DHT22;56269;51.738;21.652;2023-05-07T04:43:29;5.23;96.84
69162;DHT22;56269;51.738;21.652;2023-05-07T04:45:55;5.24;96.08
69162;DHT22;56269;51.738;21.652;2023-05-07T04:48:21;5.20;96.08
69162;DHT22;56269;51.738;21.652;2023-05-07T04:50:49;5.17;96.20
69162;DHT22;56269;51.738;21.652;2023-05-07T04:53:15;5.17;96.39
69162;DHT22;56269;51.738;21.652;2023-05-07T04:55:41;5.20;96.05
69162;DHT22;56269;51.738;21.652;2023-05-07T04:58:07;5.15;95.79
69162;DHT22;56269;51.738;21.652;2023-05-07T05:00:34;5.14;95.63
69162;DHT22;56269;51.738;21.652;2023-05-07T05:03:00;5.17;96.36
69162;DHT22;56269;51.738;21.652;2023-05-07T05:05:26;5.14;95.87
69162;DHT22;56269;51.738;21.652;2023-05-07T05:07:52;5.11;95.87
69162;DHT22;56269;51.738;21.652;2023-05-07T05:10:19;5.14;95.46
69162;DHT22;56269;51.738;21.652;2023-05-07T05:12:45;5.11;95.91
69162;DHT22;56269;51.738;21.652;2023-05-07T05:15:12;5.23;95.72
69162;DHT22;56269;51.738;21.652;2023-05-07T05:17:39;5.21;95.88
69162;DHT22;56269;51.738;21.652;2023-05-07T05:20:05;5.20;95.52
69162;DHT22;56269;51.738;21.652;2023-05-07T05:22:32;5.23;95.45
69162;DHT22;56269;51.738;21.652;2023-05-07T05:24:58;5.21;95.94
69162;DHT22;56269;51.738;21.652;2023-05-07T05:27:24;5.17;95.30
69162;DHT22;56269;51.738;21.652;2023-05-07T05:29:51;5.24;95.35
69162;DHT22;56269;51.738;21.652;2023-05-07T05:32:17;5.18;95.07
69162;DHT22;56269;51.738;21.652;2023-05-07T05:34:44;5.18;95.28
69162;DHT22;56269;51.738;21.652;2023-05-07T05:37:10;5.20;94.92
69162;DHT22;56269;51.738;21.652;2023-05-07T05:39:36;5.17;95.38
69162;DHT22;56269;51.738;21.652;2023-05-07T05:42:02;5.14;95.03
69162;DHT22;56269;51.738;21.652;2023-05-07T05:44:29;5.17;95.08
69162;DHT22;56269;51.738;21.652;2023-05-07T05:46:55;5.10;95.75
69162;DHT22;56269;51.738;21.652;2023-05-07T05:49:23;5.06;95.31
69162;DHT22;56269;51.738;21.652;2023-05-07T05:51:49;5.13;95.25
69162;DHT22;56269;51.738;21.652;2023-05-07T05:54:15;5.17;94.96
69162;DHT22;56269;51.738;21.652;2023-05-07T05:56:42;5.14;94.62
69162;DHT22;56269;51.738;21.652;2023-05-07T05:59:08;5.17;94.70
69162;DHT22;56269;51.738;21.652;2023-05-07T06:01:34;5.28;95.09
69162;DHT22;56269;51.738;21.652;2023-05-07T06:04:00;5.31;94.24
69162;DHT22;56269;51.738;21.652;2023-05-07T06:06:26;5.44;93.50
69162;DHT22;56269;51.738;21.652;2023-05-07T06:08:53;5.48;94.01
69162;DHT22;56269;51.738;21.652;2023-05-07T06:11:22;5.59;94.14
69162;DHT22;56269;51.738;21.652;2023-05-07T06:13:48;5.60;93.18
69162;DHT22;56269;51.738;21.652;2023-05-07T06:16:14;5.60;93.38
69162;DHT22;56269;51.738;21.652;2023-05-07T06:18:41;5.52;93.34
69162;DHT22;56269;51.738;21.652;2023-05-07T06:21:07;5.59;94.62
69162;DHT22;56269;51.738;21.652;2023-05-07T06:23:33;5.58;93.31
69162;DHT22;56269;51.738;21.652;2023-05-07T06:25:59;5.52;93.11
69162;DHT22;56269;51.738;21.652;2023-05-07T06:28:25;5.58;93.77
69162;DHT22;56269;51.738;21.652;2023-05-07T06:30:51;5.52;93.26
69162;DHT22;56269;51.738;21.652;2023-05-07T06:33:18;5.55;92.73
69162;DHT22;56269;51.738;21.652;2023-05-07T06:35:45;5.59;93.46
69162;DHT22;56269;51.738;21.652;2023-05-07T06:38:11;5.56;93.22
69162;DHT22;56269;51.738;21.652;2023-05-07T06:40:38;5.49;93.25
69162;DHT22;56269;51.738;21.652;2023-05-07T06:43:04;5.51;93.01
69162;DHT22;56269;51.738;21.652;2023-05-07T06:45:30;5.44;93.13
69162;DHT22;56269;51.738;21.652;2023-05-07T06:47:57;5.52;93.21
69162;DHT22;56269;51.738;21.652;2023-05-07T06:50:25;5.51;93.09
69162;DHT22;56269;51.738;21.652;2023-05-07T06:52:51;5.58;93.00
69162;DHT22;56269;51.738;21.652;2023-05-07T06:55:17;5.45;92.91
69162;DHT22;56269;51.738;21.652;2023-05-07T06:57:45;5.48;92.77
69162;DHT22;56269;51.738;21.652;2023-05-07T07:00:11;5.42;93.04
69162;DHT22;56269;51.738;21.652;2023-05-07T07:02:38;5.62;93.05
69162;DHT22;56269;51.738;21.652;2023-05-07T07:05:04;5.63;92.86
69162;DHT22;56269;51.738;21.652;2023-05-07T07:07:30;5.65;92.95
69162;DHT22;56269;51.738;21.652;2023-05-07T07:09:56;5.60;92.54
69162;DHT22;56269;51.738;21.652;2023-05-07T07:12:23;5.70;92.37
69162;DHT22;56269;51.738;21.652;2023-05-07T07:14:51;5.80;92.26
69162;DHT22;56269;51.738;21.652;2023-05-07T07:17:17;5.72;92.50
69162;DHT22;56269;51.738;21.652;2023-05-07T07:19:43;5.82;92.01
69162;DHT22;56269;51.738;21.652;2023-05-07T07:22:10;5.90;91.67
69162;DHT22;56269;51.738;21.652;2023-05-07T07:24:36;5.97;91.09
69162;DHT22;56269;51.738;21.652;2023-05-07T07:27:02;5.88;91.80
69162;DHT22;56269;51.738;21.652;2023-05-07T07:29:28;6.00;92.32
69162;DHT22;56269;51.738;21.652;2023-05-07T07:31:54;5.97;91.91
69162;DHT22;56269;51.738;21.652;2023-05-07T07:34:22;5.97;91.06
69162;DHT22;56269;51.738;21.652;2023-05-07T07:36:48;6.11;91.12
69162;DHT22;56269;51.738;21.652;2023-05-07T07:39:17;5.96;90.31
69162;DHT22;56269;51.738;21.652;2023-05-07T07:41:43;6.00;89.72
69162;DHT22;56269;51.738;21.652;2023-05-07T07:44:09;6.26;90.10
69162;DHT22;56269;51.738;21.652;2023-05-07T07:46:38;6.37;89.67
69162;DHT22;56269;51.738;21.652;2023-05-07T07:49:05;6.55;88.97
69162;DHT22;56269;51.738;21.652;2023-05-07T07:51:31;6.50;88.63
69162;DHT22;56269;51.738;21.652;2023-05-07T07:53:57;6.45;88.60
69162;DHT22;56269;51.738;21.652;2023-05-07T07:56:24;6.61;88.80
69162;DHT22;56269;51.738;21.652;2023-05-07T07:58:50;6.71;89.15
69162;DHT22;56269;51.738;21.652;2023-05-07T08:01:16;6.75;88.71
69162;DHT22;56269;51.738;21.652;2023-05-07T08:03:42;6.89;88.38
69162;DHT22;56269;51.738;21.652;2023-05-07T08:06:09;6.84;87.82
69162;DHT22;56269;51.738;21.652;2023-05-07T08:08:35;6.80;87.95
69162;DHT22;56269;51.738;21.652;2023-05-07T08:11:01;6.68;89.10
69162;DHT22;56269;51.738;21.652;2023-05-07T08:13:27;6.78;87.87
69162;DHT22;56269;51.738;21.652;2023-05-07T08:15:54;6.60;87.61
69162;DHT22;56269;51.738;21.652;2023-05-07T08:18:20;6.48;88.32
69162;DHT22;56269;51.738;21.652;2023-05-07T08:20:46;6.67;87.93
69162;DHT22;56269;51.738;21.652;2023-05-07T08:23:12;6.60;87.39
69162;DHT22;56269;51.738;21.652;2023-05-07T08:25:39;6.64;88.17
69162;DHT22;56269;51.738;21.652;2023-05-07T08:28:06;6.68;88.42
69162;DHT22;56269;51.738;21.652;2023-05-07T08:30:32;6.58;88.69
69162;DHT22;56269;51.738;21.652;2023-05-07T08:32:58;6.52;89.55
69162;DHT22;56269;51.738;21.652;2023-05-07T08:35:24;6.36;89.05
69162;DHT22;56269;51.738;21.652;2023-05-07T08:37:51;6.30;89.09
69162;DHT22;56269;51.738;21.652;2023-05-07T08:40:18;6.38;88.15
69162;DHT22;56269;51.738;21.652;2023-05-07T08:42:44;6.48;88.35
69162;DHT22;56269;51.738;21.652;2023-05-07T08:45:12;6.57;89.20
69162;DHT22;56269;51.738;21.652;2023-05-07T08:47:47;6.50;88.74
69162;DHT22;56269;51.738;21.652;2023-05-07T08:50:17;6.63;89.34
69162;DHT22;56269;51.738;21.652;2023-05-07T08:52:44;6.52;88.70
69162;DHT22;56269;51.738;21.652;2023-05-07T08:55:11;6.48;89.10
69162;DHT22;56269;51.738;21.652;2023-05-07T08:57:38;6.48;88.77
69162;DHT22;56269;51.738;21.652;2023-05-07T09:00:05;6.61;88.96
69162;DHT22;56269;51.738;21.652;2023-05-07T09:02:34;6.71;88.89
69162;DHT22;56269;51.738;21.652;2023-05-07T09:05:01;6.71;88.17
69162;DHT22;56269;51.738;21.652;2023-05-07T09:07:27;6.84;87.69
69162;DHT22;56269;51.738;21.652;2023-05-07T09:09:53;6.98;88.59
69162;DHT22;56269;51.738;21.652;2023-05-07T09:12:28;7.02;87.32
69162;DHT22;56269;51.738;21.652;2023-05-07T09:14:55;7.11;87.26
69162;DHT22;56269;51.738;21.652;2023-05-07T09:17:21;7.12;87.13
69162;DHT22;56269;51.738;21.652;2023-05-07T09:19:47;7.02;87.14
69162;DHT22;56269;51.738;21.652;2023-05-07T09:22:13;6.84;87.77
69162;DHT22;56269;51.738;21.652;2023-05-07T09:24:40;6.87;87.31
69162;DHT22;56269;51.738;21.652;2023-05-07T09:27:07;6.89;88.73
69162;DHT22;56269;51.738;21.652;2023-05-07T09:29:34;7.05;88.04
69162;DHT22;56269;51.738;21.652;2023-05-07T09:32:05;6.92;87.53
69162;DHT22;56269;51.738;21.652;2023-05-07T09:34:31;6.95;87.28
69162;DHT22;56269;51.738;21.652;2023-05-07T09:37:00;6.84;87.52
69162;DHT22;56269;51.738;21.652;2023-05-07T09:39:41;6.92;87.09
69162;DHT22;56269;51.738;21.652;2023-05-07T09:42:08;7.06;87.11
69162;DHT22;56269;51.738;21.652;2023-05-07T09:44:34;7.09;86.68
69162;DHT22;56269;51.738;21.652;2023-05-07T09:47:04;7.06;87.21
69162;DHT22;56269;51.738;21.652;2023-05-07T09:49:34;6.92;85.69
69162;DHT22;56269;51.738;21.652;2023-05-07T09:52:02;6.98;86.76
69162;DHT22;56269;51.738;21.652;2023-05-07T09:54:29;6.91;86.33
69162;DHT22;56269;51.738;21.652;2023-05-07T09:56:56;6.92;85.84
69162;DHT22;56269;51.738;21.652;2023-05-07T09:59:24;7.13;86.43
69162;DHT22;56269;51.738;21.652;2023-05-07T10:01:52;7.36;86.05
69162;DHT22;56269;51.738;21.652;2023-05-07T10:04:19;7.43;85.80
69162;DHT22;56269;51.738;21.652;2023-05-07T10:06:47;7.27;85.88
69162;DHT22;56269;51.738;21.652;2023-05-07T10:09:14;7.09;85.56
69162;DHT22;56269;51.738;21.652;2023-05-07T10:11:41;6.89;85.83
69162;DHT22;56269;51.738;21.652;2023-05-07T10:14:08;7.06;85.85
69162;DHT22;56269;51.738;21.652;2023-05-07T10:16:35;7.23;84.89
69162;DHT22;56269;51.738;21.652;2023-05-07T10:19:03;7.44;85.19
69162;DHT22;56269;51.738;21.652;2023-05-07T10:21:30;7.27;85.21
69162;DHT22;56269;51.738;21.652;2023-05-07T10:24:03;7.29;85.16
69162;DHT22;56269;51.738;21.652;2023-05-07T10:26:32;7.47;85.65
69162;DHT22;56269;51.738;21.652;2023-05-07T10:29:07;7.34;86.18
69162;DHT22;56269;51.738;21.652;2023-05-07T10:31:59;7.32;85.51
69162;DHT22;56269;51.738;21.652;2023-05-07T10:34:36;7.39;85.76
69162;DHT22;56269;51.738;21.652;2023-05-07T10:37:04;7.43;84.91
69162;DHT22;56269;51.738;21.652;2023-05-07T10:39:31;7.42;84.75
69162;DHT22;56269;51.738;21.652;2023-05-07T10:41:57;7.66;84.53
69162;DHT22;56269;51.738;21.652;2023-05-07T10:44:33;7.64;84.64
69162;DHT22;56269;51.738;21.652;2023-05-07T10:47:09;7.62;84.17
69162;DHT22;56269;51.738;21.652;2023-05-07T10:49:37;7.60;86.20
69162;DHT22;56269;51.738;21.652;2023-05-07T10:52:15;7.57;86.09
69162;DHT22;56269;51.738;21.652;2023-05-07T10:54:42;7.37;85.38
69162;DHT22;56269;51.738;21.652;2023-05-07T10:57:34;7.39;84.34
69162;DHT22;56269;51.738;21.652;2023-05-07T11:00:03;7.39;85.74
69162;DHT22;56269;51.738;21.652;2023-05-07T11:05:29;7.43;85.34
69162;DHT22;56269;51.738;21.652;2023-05-07T11:07:56;7.34;84.24
69162;DHT22;56269;51.738;21.652;2023-05-07T11:10:23;7.53;84.24
69162;DHT22;56269;51.738;21.652;2023-05-07T11:13:09;7.37;84.70
69162;DHT22;56269;51.738;21.652;2023-05-07T11:15:39;7.93;83.79
69162;DHT22;56269;51.738;21.652;2023-05-07T11:18:07;8.31;82.67
69162;DHT22;56269;51.738;21.652;2023-05-07T11:20:50;8.12;82.04
69162;DHT22;56269;51.738;21.652;2023-05-07T11:26:09;8.12;82.36
69162;DHT22;56269;51.738;21.652;2023-05-07T11:28:40;7.94;82.80
69162;DHT22;56269;51.738;21.652;2023-05-07T11:31:08;8.05;82.90
69162;DHT22;56269;51.738;21.652;2023-05-07T11:33:34;8.01;81.92
69162;DHT22;56269;51.738;21.652;2023-05-07T11:36:05;8.01;82.45
69162;DHT22;56269;51.738;21.652;2023-05-07T11:38:37;7.84;83.61
69162;DHT22;56269;51.738;21.652;2023-05-07T11:41:04;7.69;83.09
69162;DHT22;56269;51.738;21.652;2023-05-07T11:43:33;7.88;83.63
69162;DHT22;56269;51.738;21.652;2023-05-07T11:46:10;8.14;83.08
69162;DHT22;56269;51.738;21.652;2023-05-07T11:48:38;8.15;83.53
69162;DHT22;56269;51.738;21.652;2023-05-07T11:51:06;8.08;83.93
69162;DHT22;56269;51.738;21.652;2023-05-07T11:53:40;8.09;83.62
69162;DHT22;56269;51.738;21.652;2023-05-07T11:56:14;8.16;83.39
69162;DHT22;56269;51.738;21.652;2023-05-07T11:58:41;8.56;82.24
69162;DHT22;56269;51.738;21.652;2023-05-07T12:01:10;8.75;82.55
69162;DHT22;56269;51.738;21.652;2023-05-07T12:03:37;8.69;80.58
69162;DHT22;56269;51.738;21.652;2023-05-07T12:06:06;8.77;80.96
69162;DHT22;56269;51.738;21.652;2023-05-07T12:08:32;8.57;80.52
69162;DHT22;56269;51.738;21.652;2023-05-07T12:10:59;8.50;81.01
69162;DHT22;56269;51.738;21.652;2023-05-07T12:13:25;8.36;81.37
69162;DHT22;56269;51.738;21.652;2023-05-07T12:15:53;8.35;82.04
69162;DHT22;56269;51.738;21.652;2023-05-07T12:18:19;8.35;82.21
69162;DHT22;56269;51.738;21.652;2023-05-07T12:20:48;8.12;81.21
69162;DHT22;56269;51.738;21.652;2023-05-07T12:23:16;8.36;82.08
69162;DHT22;56269;51.738;21.652;2023-05-07T12:25:43;8.53;81.12
69162;DHT22;56269;51.738;21.652;2023-05-07T12:28:17;8.50;82.69
69162;DHT22;56269;51.738;21.652;2023-05-07T12:30:46;8.52;81.82
69162;DHT22;56269;51.738;21.652;2023-05-07T12:33:16;8.35;81.90
69162;DHT22;56269;51.738;21.652;2023-05-07T12:35:43;8.26;81.14
69162;DHT22;56269;51.738;21.652;2023-05-07T12:38:11;8.22;82.14
69162;DHT22;56269;51.738;21.652;2023-05-07T12:40:39;8.34;81.90
69162;DHT22;56269;51.738;21.652;2023-05-07T12:43:06;8.16;82.16
69162;DHT22;56269;51.738;21.652;2023-05-07T12:45:41;8.28;81.21
69162;DHT22;56269;51.738;21.652;2023-05-07T12:48:12;8.24;82.46
69162;DHT22;56269;51.738;21.652;2023-05-07T12:50:38;8.15;81.64
69162;DHT22;56269;51.738;21.652;2023-05-07T12:53:05;8.16;82.59
69162;DHT22;56269;51.738;21.652;2023-05-07T12:55:32;7.99;83.41
69162;DHT22;56269;51.738;21.652;2023-05-07T12:58:06;8.02;82.71
69162;DHT22;56269;51.738;21.652;2023-05-07T13:00:41;8.09;82.06
69162;DHT22;56269;51.738;21.652;2023-05-07T13:03:09;8.24;82.23
69162;DHT22;56269;51.738;21.652;2023-05-07T13:05:36;8.09;83.24
69162;DHT22;56269;51.738;21.652;2023-05-07T13:08:02;8.24;82.90
69162;DHT22;56269;51.738;21.652;2023-05-07T13:10:28;8.20;81.86
69162;DHT22;56269;51.738;21.652;2023-05-07T13:12:54;8.22;82.91
69162;DHT22;56269;51.738;21.652;2023-05-07T13:15:21;8.29;82.83
69162;DHT22;56269;51.738;21.652;2023-05-07T13:17:47;8.09;81.99
69162;DHT22;56269;51.738;21.652;2023-05-07T13:20:14;7.93;82.79
69162;DHT22;56269;51.738;21.652;2023-05-07T13:22:41;8.05;83.34
69162;DHT22;56269;51.738;21.652;2023-05-07T13:25:08;8.02;83.40
69162;DHT22;56269;51.738;21.652;2023-05-07T13:27:34;7.94;82.96
69162;DHT22;56269;51.738;21.652;2023-05-07T13:30:05;8.05;82.01
69162;DHT22;56269;51.738;21.652;2023-05-07T13:32:32;8.05;83.07
69162;DHT22;56269;51.738;21.652;2023-05-07T13:34:58;8.12;81.92
69162;DHT22;56269;51.738;21.652;2023-05-07T13:37:24;8.05;82.86
69162;DHT22;56269;51.738;21.652;2023-05-07T13:39:51;7.99;82.30
69162;DHT22;56269;51.738;21.652;2023-05-07T13:42:18;7.95;82.75
69162;DHT22;56269;51.738;21.652;2023-05-07T13:44:44;7.88;82.61
69162;DHT22;56269;51.738;21.652;2023-05-07T13:47:11;7.80;83.22
69162;DHT22;56269;51.738;21.652;2023-05-07T13:49:37;7.87;84.35
69162;DHT22;56269;51.738;21.652;2023-05-07T13:52:03;7.81;83.99
69162;DHT22;56269;51.738;21.652;2023-05-07T13:54:30;7.81;83.55
69162;DHT22;56269;51.738;21.652;2023-05-07T13:56:56;7.87;84.03
69162;DHT22;56269;51.738;21.652;2023-05-07T13:59:22;8.09;83.80
69162;DHT22;56269;51.738;21.652;2023-05-07T14:01:48;8.28;82.62
69162;DHT22;56269;51.738;21.652;2023-05-07T14:04:15;8.35;81.11
69162;DHT22;56269;51.738;21.652;2023-05-07T14:06:41;8.52;81.33
69162;DHT22;56269;51.738;21.652;2023-05-07T14:09:08;8.80;82.69
69162;DHT22;56269;51.738;21.652;2023-05-07T14:11:33;9.07;81.20
69162;DHT22;56269;51.738;21.652;2023-05-07T14:14:00;8.93;80.47
69162;DHT22;56269;51.738;21.652;2023-05-07T14:16:26;8.94;80.27
69162;DHT22;56269;51.738;21.652;2023-05-07T14:18:52;8.99;80.49
69162;DHT22;56269;51.738;21.652;2023-05-07T14:21:18;9.01;79.69
69162;DHT22;56269;51.738;21.652;2023-05-07T14:23:45;9.13;79.20
69162;DHT22;56269;51.738;21.652;2023-05-07T14:26:12;9.30;79.39
69162;DHT22;56269;51.738;21.652;2023-05-07T14:28:38;9.35;78.99
69162;DHT22;56269;51.738;21.652;2023-05-07T14:31:05;9.42;78.78
69162;DHT22;56269;51.738;21.652;2023-05-07T14:33:32;9.24;78.07
69162;DHT22;56269;51.738;21.652;2023-05-07T14:35:58;9.17;79.22
69162;DHT22;56269;51.738;21.652;2023-05-07T14:38:24;9.13;78.60
69162;DHT22;56269;51.738;21.652;2023-05-07T14:40:50;9.04;79.70
69162;DHT22;56269;51.738;21.652;2023-05-07T14:43:18;8.93;78.66
69162;DHT22;56269;51.738;21.652;2023-05-07T14:45:44;8.94;79.32
69162;DHT22;56269;51.738;21.652;2023-05-07T14:48:11;8.81;79.13
69162;DHT22;56269;51.738;21.652;2023-05-07T14:50:43;8.66;79.10
69162;DHT22;56269;51.738;21.652;2023-05-07T14:53:09;8.67;78.60
69162;DHT22;56269;51.738;21.652;2023-05-07T14:55:35;8.80;78.76
69162;DHT22;56269;51.738;21.652;2023-05-07T14:58:01;8.79;79.23
69162;DHT22;56269;51.738;21.652;2023-05-07T15:00:28;8.86;78.74
69162;DHT22;56269;51.738;21.652;2023-05-07T15:03:04;9.04;78.85
69162;DHT22;56269;51.738;21.652;2023-05-07T15:05:31;9.41;77.54
69162;DHT22;56269;51.738;21.652;2023-05-07T15:07:57;9.51;77.06
69162;DHT22;56269;51.738;21.652;2023-05-07T15:10:23;9.78;76.11
69162;DHT22;56269;51.738;21.652;2023-05-07T15:12:50;9.95;76.11
69162;DHT22;56269;51.738;21.652;2023-05-07T15:15:16;9.77;75.24
69162;DHT22;56269;51.738;21.652;2023-05-07T15:17:42;10.29;76.42
69162;DHT22;56269;51.738;21.652;2023-05-07T15:20:08;10.28;74.61
69162;DHT22;56269;51.738;21.652;2023-05-07T15:22:35;10.53;75.52
69162;DHT22;56269;51.738;21.652;2023-05-07T15:25:03;9.82;74.51
69162;DHT22;56269;51.738;21.652;2023-05-07T15:27:30;9.51;76.37
69162;DHT22;56269;51.738;21.652;2023-05-07T15:29:57;9.98;75.11
69162;DHT22;56269;51.738;21.652;2023-05-07T15:32:23;10.67;75.42
69162;DHT22;56269;51.738;21.652;2023-05-07T15:34:49;10.80;73.56
69162;DHT22;56269;51.738;21.652;2023-05-07T15:37:16;11.14;71.95